Terminal Aerodrome Forecast
Issued by NWS

Home | Current Version | Previous Version | Text Only | Print | Product List | Glossary On
Versions: 1 2 3 4 5 6 7 8 9 10 11 12 13 14 15 16 17 18 19 20 21 22 23
588
FTUS46 KMFR 062357 AAA
TAFOTH
TAF AMD
KOTH 062357Z 0700/0724 VRB04KT 2SM BR BKN008 BKN025 OVC035
      TEMPO 0700/0701 BKN003 OVC025
     FM070200 14004KT P6SM BKN025 BKN035 BKN060
     FM070600 14004KT P6SM SCT025 BKN035 BKN060
     FM071200 13003KT 5SM BR FEW005 SCT070 BKN100
     FM071800 VRB03KT P6SM FEW200
     FM072200 02008KT P6SM SKC=

USA.gov is the U.S. government's official web portal to all federal, state and local government web resources and services.